Terminal Aerodrome Forecast
Issued by NWS North Platte, NE

Home | Current Version | Previous Version | Text Only | Print | Product List | Glossary Off
Versions: 1 2 3 4 5 6 7 8 9 10 11 12 13 14 15 16 17 18 19 20 21 22 23

000
FTUS43 KLBF 052300
TAFVTN
TAF
KVTN 052337Z 0600/0624 15009KT P6SM SCT250
     FM060300 32018G28KT 5SM -TSRA BKN020CB OVC100
     FM060600 34014KT 4SM -SHRA BR OVC025
     FM061300 36013KT P6SM SCT025 BKN100=

USA.gov is the U.S. government's official web portal to all federal, state and local government web resources and services.